DIBK

Bouaké Airport

Côte D’Ivoire
TAF DIBK 161700Z 1618/1718 VRB03KT 8000 BKN013 BECMG 1620/1621 FEW011 PROB40 TEMPO 1702/1707 4000 DZ BR FEW006 BKN010 BECMG 1709/1710 21010KT
Issued Valid From Valid To
Jul-16 @ 17:00 UTC
(3 hours ago)
Jul-16 @ 18:00 UTC
(2 hours ago)
Jul-17 @ 18:00 UTC
(in 22 hours)
Expired Click to View Jul-16 @ 18:00 to Jul-16 @ 20:00
TAF DIBK 161700Z 1618/1718 VRB03KT 8000 BKN013
Wind Visibility Clouds
Variable at 3 knots 7,998 meters
  • Broken at 1,300' AGL
Becoming Jul-16 @ 20:00 to Jul-17 @ 09:00
BECMG 1620/1621 FEW011
Wind Visibility Clouds
Variable at 3 knots 7,998 meters
  • Few at 1,100' AGL
Temporary  (Probability 40%) Jul-17 @ 02:00 to Jul-17 @ 07:00
PROB40 TEMPO 1702/1707 4000 DZ BR FEW006 BKN010
Visibility Clouds Conditions
4,007 meters
  • Few at 600' AGL
  • Broken at 1,000' AGL
  • Drizzle
  • Mist
Becoming Jul-17 @ 09:00 to Jul-17 @ 18:00
BECMG 1709/1710 21010KT
Wind Visibility Clouds
210° at 10 knots 7,998 meters
  • Few at 1,100' AGL
TAF DIBK 161700Z 1618/1718 VRB03KT 8000 BKN013 BECMG 1620/1621 FEW011 PROB40 TEMPO 1702/1707 4000 DZ BR FEW006 BKN010 BECMG 1709/1710 21010KT
Issued Jul-16 @ 17:00 UTC
(3 hours ago)
Valid From Jul-16 @ 18:00 UTC
(2 hours ago)
Valid To Jul-17 @ 18:00 UTC
(in 22 hours)
Jul-16 @ 18:00 - Jul-16 @ 20:00
Wind Visibility
Variable at 3 knots 7,998 meters
Clouds
  • Broken at 1,300' AGL
Becoming Jul-16 @ 20:00 - Jul-17 @ 09:00
Wind Visibility
Variable at 3 knots 7,998 meters
Clouds
  • Few at 1,100' AGL
Probability 40% Temporary Jul-17 @ 02:00 - Jul-17 @ 07:00
Clouds
  • Few at 600' AGL
  • Broken at 1,000' AGL
Conditions
  • Drizzle
  • Mist
Becoming Jul-17 @ 09:00 - Jul-17 @ 18:00
Wind Visibility
210° at 10 knots 7,998 meters
Clouds
  • Few at 1,100' AGL